createdAt,value
2023-12-30T07:08:24.309Z,89701.39
2023-12-30T07:10:53.599Z,89702.86
2023-12-30T07:13:22.040Z,89702.09
2023-12-30T07:15:52.740Z,89695.27
2023-12-30T07:18:22.873Z,89699.54
2023-12-30T07:20:51.679Z,89706.15
2023-12-30T07:23:21.547Z,89706.50
2023-12-30T07:25:53.097Z,89703.94
2023-12-30T07:28:22.211Z,89708.52
2023-12-30T07:30:52.201Z,89709.21
2023-12-30T07:33:21.040Z,89712.67
2023-12-30T07:35:50.274Z,89713.45
2023-12-30T07:38:19.405Z,89714.75
2023-12-30T07:40:48.995Z,89717.92
2023-12-30T07:43:18.655Z,89719.98
2023-12-30T07:45:49.259Z,89719.84
2023-12-30T07:48:17.606Z,89723.75
2023-12-30T07:50:46.878Z,89722.90
2023-12-30T07:53:18.838Z,89730.25
2023-12-30T07:55:50.636Z,89731.95
2023-12-30T07:58:19.927Z,89731.94
2023-12-30T08:00:48.566Z,89729.52
2023-12-30T08:03:17.244Z,89729.31
2023-12-30T08:05:46.094Z,89728.09
2023-12-30T08:08:15.702Z,89725.47
2023-12-30T08:10:44.222Z,89726.42
2023-12-30T08:13:13.936Z,89730.08
2023-12-30T08:15:41.976Z,89726.40
2023-12-30T08:18:11.167Z,89727.44
2023-12-30T08:20:39.632Z,89731.36
2023-12-30T08:23:08.108Z,89728.77
2023-12-30T08:25:36.080Z,89729.61
2023-12-30T08:28:04.781Z,89731.98
2023-12-30T08:30:34.849Z,89733.95
2023-12-30T08:33:09.857Z,89737.19
2023-12-30T08:35:41.601Z,89741.62
2023-12-30T08:38:12.338Z,89746.85
2023-12-30T08:40:40.788Z,89750.58
2023-12-30T08:43:12.803Z,89748.61
2023-12-30T08:45:43.092Z,89752.30
2023-12-30T08:48:11.341Z,89758.42
2023-12-30T08:50:39.650Z,89761.45
2023-12-30T08:53:09.582Z,89759.52
2023-12-30T08:55:40.043Z,89757.14
2023-12-30T08:58:09.543Z,89757.79
2023-12-30T09:00:38.933Z,89766.72
2023-12-30T09:03:06.929Z,89769.20
2023-12-30T09:05:35.557Z,89772.65
2023-12-30T09:08:05.711Z,89775.92
2023-12-30T09:10:36.126Z,89774.24
2023-12-30T09:13:05.521Z,89778.22
2023-12-30T09:15:35.728Z,89780.02
2023-12-30T09:18:06.584Z,89782.34
2023-12-30T09:20:34.456Z,89784.27
2023-12-30T09:23:02.745Z,89788.50
2023-12-30T09:25:31.090Z,89791.24
2023-12-30T09:28:00.056Z,89791.33
2023-12-30T09:30:28.371Z,89791.27
2023-12-30T09:32:56.217Z,89788.05
2023-12-30T09:35:26.154Z,89791.80
2023-12-30T09:37:53.833Z,89785.56
2023-12-30T09:40:21.608Z,89791.06
2023-12-30T09:42:52.792Z,89789.83
2023-12-30T09:45:23.387Z,89785.42
2023-12-30T09:47:55.969Z,89790.30
2023-12-30T09:50:23.818Z,89793.83
2023-12-30T09:52:51.559Z,89794.87
2023-12-30T09:59:03.178Z,89801.00
2023-12-30T10:01:37.176Z,89803.19
2023-12-30T10:04:08.748Z,89802.88
2023-12-30T10:06:39.247Z,89803.52
2023-12-30T10:09:07.758Z,89803.29
2023-12-30T10:11:38.571Z,89796.39
2023-12-30T10:14:06.872Z,89791.48
2023-12-30T10:16:37.524Z,89791.12
2023-12-30T10:19:12.121Z,89788.98
2023-12-30T10:21:41.975Z,89785.21
2023-12-30T10:24:11.907Z,89780.96
2023-12-30T10:26:44.899Z,89784.45
2023-12-30T10:29:13.818Z,89781.83
2023-12-30T10:31:43.991Z,89777.52
2023-12-30T10:34:12.606Z,89778.70
2023-12-30T10:36:40.696Z,89771.10
2023-12-30T10:39:16.869Z,89768.41
2023-12-30T10:41:46.117Z,89767.11
2023-12-30T10:44:14.025Z,89769.96
2023-12-30T10:46:52.751Z,89763.02
2023-12-30T10:49:26.840Z,89761.61
2023-12-30T10:51:56.752Z,89762.81
2023-12-30T10:54:38.408Z,89764.06
2023-12-30T10:57:12.867Z,89760.23
2023-12-30T10:59:44.372Z,89756.55
2023-12-30T11:02:14.286Z,89756.23
2023-12-30T11:04:44.192Z,89758.21
2023-12-30T11:07:17.059Z,89754.66
2023-12-30T11:09:45.329Z,89752.59
2023-12-30T11:12:14.631Z,89751.95
2023-12-30T11:14:42.677Z,89755.34
2023-12-30T11:17:11.578Z,89748.92
2023-12-30T11:19:41.354Z,89750.25
2023-12-30T11:22:09.385Z,89749.05
2023-12-30T11:24:44.221Z,89743.10
2023-12-30T11:27:12.902Z,89744.96
2023-12-30T11:29:43.204Z,89743.29
2023-12-30T11:32:21.106Z,89739.92
2023-12-30T11:34:50.586Z,89738.13
2023-12-30T11:37:20.191Z,89733.38
2023-12-30T11:39:51.369Z,89735.25
2023-12-30T11:42:27.428Z,89736.00
2023-12-30T11:45:04.305Z,89727.91
2023-12-30T11:47:32.945Z,89724.30
2023-12-30T11:50:11.388Z,89717.82
2023-12-30T11:53:05.408Z,89717.27
2023-12-30T11:55:34.038Z,89717.23
2023-12-30T11:58:04.212Z,89719.25
2023-12-30T12:00:32.249Z,89713.35
2023-12-30T12:03:00.869Z,89710.44
2023-12-30T12:05:30.586Z,89704.48
2023-12-30T12:08:00.252Z,89701.88
2023-12-30T12:10:30.611Z,89696.22
2023-12-30T12:12:59.143Z,89699.01
2023-12-30T12:15:31.031Z,89693.56
2023-12-30T12:18:02.985Z,89691.48
2023-12-30T12:20:38.100Z,89689.77
2023-12-30T12:23:06.946Z,89685.36
2023-12-30T12:25:37.636Z,89686.97
2023-12-30T12:28:24.442Z,89685.10
2023-12-30T12:30:52.871Z,89680.27
2023-12-30T12:33:21.233Z,89683.11
2023-12-30T12:39:19.240Z,89674.44
2023-12-30T12:41:48.619Z,89671.38
2023-12-30T12:44:17.016Z,89665.73
2023-12-30T12:46:45.409Z,89664.71
2023-12-30T12:49:15.604Z,89665.89
2023-12-30T12:51:46.125Z,89666.58
2023-12-30T12:54:15.108Z,89671.10
2023-12-30T12:56:46.778Z,89665.47
2023-12-30T12:59:15.361Z,89669.39
2023-12-30T13:01:44.536Z,89670.05
2023-12-30T13:04:15.106Z,89669.28
2023-12-30T13:06:44.841Z,89672.19
2023-12-30T13:09:36.196Z,89671.08
2023-12-30T13:12:07.871Z,89663.71
2023-12-30T13:14:36.680Z,89664.63
2023-12-30T13:17:14.145Z,89660.45
2023-12-30T13:19:43.196Z,89656.71
2023-12-30T13:22:13.601Z,89653.02
2023-12-30T13:24:41.842Z,89650.73
2023-12-30T13:27:11.598Z,89651.40
2023-12-30T13:29:40.034Z,89652.29
2023-12-30T13:32:10.342Z,89651.45
2023-12-30T13:34:41.868Z,89645.77
2023-12-30T13:37:12.932Z,89644.75
2023-12-30T13:39:43.546Z,89634.45
2023-12-30T13:42:15.589Z,89641.02
2023-12-30T13:44:45.797Z,89641.64
2023-12-30T13:47:52.834Z,89640.39
2023-12-30T13:50:28.412Z,89640.05
2023-12-30T13:53:03.035Z,89641.01
2023-12-30T13:55:34.712Z,89642.89
2023-12-30T13:58:06.680Z,89643.83
2023-12-30T14:00:41.512Z,89646.43
2023-12-30T14:03:10.242Z,89641.45
2023-12-30T14:05:46.700Z,89647.33
2023-12-30T14:08:38.452Z,89645.59
2023-12-30T14:11:09.931Z,89644.36
2023-12-30T14:13:38.324Z,89643.52
2023-12-30T14:16:07.618Z,89639.73
2023-12-30T14:18:36.777Z,89643.48
2023-12-30T14:21:07.948Z,89638.30
2023-12-30T14:23:37.635Z,89639.95
2023-12-30T14:26:06.463Z,89642.33
2023-12-30T14:28:36.896Z,89644.92
2023-12-30T14:31:05.211Z,89647.87
2023-12-30T14:33:36.817Z,89645.81
2023-12-30T14:36:06.806Z,89643.56
2023-12-30T14:38:34.981Z,89646.33
2023-12-30T14:41:03.911Z,89647.36
2023-12-30T14:43:33.176Z,89644.73
2023-12-30T14:46:08.801Z,89643.67
2023-12-30T14:48:39.799Z,89649.90
2023-12-30T14:54:40.102Z,89643.21
2023-12-30T14:57:09.632Z,89642.64
2023-12-30T14:59:39.619Z,89642.04
2023-12-30T15:02:08.645Z,89645.36
2023-12-30T15:04:38.187Z,89649.11
2023-12-30T15:07:10.690Z,89644.90
2023-12-30T15:09:38.981Z,89647.41
